sensor_id;sensor_type;location;lat;lon;timestamp;P1;durP1;ratioP1;P2;durP2;ratioP2
75887;SDS011;64562;55.662;37.300;2022-12-24T00:00:07;3.88;;;2.25;;
75887;SDS011;64562;55.662;37.300;2022-12-24T00:02:34;3.70;;;2.45;;
75887;SDS011;64562;55.662;37.300;2022-12-24T00:05:01;3.60;;;2.30;;
75887;SDS011;64562;55.662;37.300;2022-12-24T00:07:28;3.22;;;1.92;;
75887;SDS011;64562;55.662;37.300;2022-12-24T00:09:55;3.08;;;2.10;;
75887;SDS011;64562;55.662;37.300;2022-12-24T00:12:21;4.13;;;2.30;;
75887;SDS011;64562;55.662;37.300;2022-12-24T00:14:48;3.13;;;2.17;;
75887;SDS011;64562;55.662;37.300;2022-12-24T00:17:16;4.75;;;2.60;;
75887;SDS011;64562;55.662;37.300;2022-12-24T00:19:43;4.68;;;2.30;;
75887;SDS011;64562;55.662;37.300;2022-12-24T00:22:09;4.43;;;2.42;;
75887;SDS011;64562;55.662;37.300;2022-12-24T00:24:36;3.33;;;2.50;;
75887;SDS011;64562;55.662;37.300;2022-12-24T00:27:03;3.60;;;2.60;;
75887;SDS011;64562;55.662;37.300;2022-12-24T00:29:30;3.10;;;2.20;;
75887;SDS011;64562;55.662;37.300;2022-12-24T00:31:56;3.70;;;2.28;;
75887;SDS011;64562;55.662;37.300;2022-12-24T00:34:24;3.92;;;2.40;;
75887;SDS011;64562;55.662;37.300;2022-12-24T00:36:51;3.78;;;2.20;;
75887;SDS011;64562;55.662;37.300;2022-12-24T00:39:18;4.35;;;2.58;;
75887;SDS011;64562;55.662;37.300;2022-12-24T00:41:44;4.40;;;2.45;;
75887;SDS011;64562;55.662;37.300;2022-12-24T00:44:11;2.88;;;1.85;;
75887;SDS011;64562;55.662;37.300;2022-12-24T00:46:38;4.50;;;2.53;;
75887;SDS011;64562;55.662;37.300;2022-12-24T00:49:05;3.63;;;2.25;;
75887;SDS011;64562;55.662;37.300;2022-12-24T00:51:34;3.55;;;2.40;;
75887;SDS011;64562;55.662;37.300;2022-12-24T00:54:01;4.57;;;2.47;;
75887;SDS011;64562;55.662;37.300;2022-12-24T00:56:28;4.13;;;2.60;;
75887;SDS011;64562;55.662;37.300;2022-12-24T00:58:55;3.95;;;2.80;;
75887;SDS011;64562;55.662;37.300;2022-12-24T01:01:22;3.72;;;2.50;;
75887;SDS011;64562;55.662;37.300;2022-12-24T01:03:48;3.72;;;2.60;;
75887;SDS011;64562;55.662;37.300;2022-12-24T01:06:16;4.88;;;2.22;;
75887;SDS011;64562;55.662;37.300;2022-12-24T01:08:44;3.88;;;2.50;;
75887;SDS011;64562;55.662;37.300;2022-12-24T01:11:11;3.95;;;2.88;;
75887;SDS011;64562;55.662;37.300;2022-12-24T01:13:38;11.30;;;2.47;;
75887;SDS011;64562;55.662;37.300;2022-12-24T01:16:11;3.88;;;2.70;;
75887;SDS011;64562;55.662;37.300;2022-12-24T01:18:39;4.00;;;2.85;;
75887;SDS011;64562;55.662;37.300;2022-12-24T01:21:05;3.97;;;2.88;;
75887;SDS011;64562;55.662;37.300;2022-12-24T01:23:32;3.28;;;2.60;;
75887;SDS011;64562;55.662;37.300;2022-12-24T01:26:00;4.13;;;2.78;;
75887;SDS011;64562;55.662;37.300;2022-12-24T01:28:27;4.00;;;2.50;;
75887;SDS011;64562;55.662;37.300;2022-12-24T01:30:54;4.05;;;2.90;;
75887;SDS011;64562;55.662;37.300;2022-12-24T01:33:20;4.72;;;2.72;;
75887;SDS011;64562;55.662;37.300;2022-12-24T01:35:47;4.53;;;2.85;;
75887;SDS011;64562;55.662;37.300;2022-12-24T01:38:14;4.03;;;2.78;;
75887;SDS011;64562;55.662;37.300;2022-12-24T01:40:41;4.43;;;2.65;;
75887;SDS011;64562;55.662;37.300;2022-12-24T01:43:28;4.28;;;2.80;;
75887;SDS011;64562;55.662;37.300;2022-12-24T01:45:56;4.80;;;3.25;;
75887;SDS011;64562;55.662;37.300;2022-12-24T01:48:27;4.22;;;2.80;;
75887;SDS011;64562;55.662;37.300;2022-12-24T01:50:58;4.20;;;2.80;;
75887;SDS011;64562;55.662;37.300;2022-12-24T01:53:26;5.00;;;2.85;;
75887;SDS011;64562;55.662;37.300;2022-12-24T01:55:52;4.07;;;2.65;;
75887;SDS011;64562;55.662;37.300;2022-12-24T01:58:20;4.40;;;2.67;;
75887;SDS011;64562;55.662;37.300;2022-12-24T02:00:50;4.47;;;2.88;;
75887;SDS011;64562;55.662;37.300;2022-12-24T02:03:17;5.18;;;2.78;;
75887;SDS011;64562;55.662;37.300;2022-12-24T02:05:45;3.75;;;2.50;;
75887;SDS011;64562;55.662;37.300;2022-12-24T02:08:13;3.63;;;2.75;;
75887;SDS011;64562;55.662;37.300;2022-12-24T02:10:40;3.63;;;2.83;;
75887;SDS011;64562;55.662;37.300;2022-12-24T02:13:06;5.20;;;2.80;;
75887;SDS011;64562;55.662;37.300;2022-12-24T02:15:34;3.40;;;2.40;;
75887;SDS011;64562;55.662;37.300;2022-12-24T02:18:06;5.45;;;2.92;;
75887;SDS011;64562;55.662;37.300;2022-12-24T02:20:41;4.50;;;3.00;;
75887;SDS011;64562;55.662;37.300;2022-12-24T02:23:19;3.63;;;2.50;;
75887;SDS011;64562;55.662;37.300;2022-12-24T02:25:57;4.13;;;2.72;;
75887;SDS011;64562;55.662;37.300;2022-12-24T02:28:35;4.70;;;2.60;;
75887;SDS011;64562;55.662;37.300;2022-12-24T02:31:08;4.95;;;3.13;;
75887;SDS011;64562;55.662;37.300;2022-12-24T02:33:39;3.90;;;2.60;;
75887;SDS011;64562;55.662;37.300;2022-12-24T02:36:10;4.28;;;2.78;;
75887;SDS011;64562;55.662;37.300;2022-12-24T02:38:38;3.38;;;2.53;;
75887;SDS011;64562;55.662;37.300;2022-12-24T02:41:08;4.07;;;2.58;;
75887;SDS011;64562;55.662;37.300;2022-12-24T02:43:36;4.05;;;2.72;;
75887;SDS011;64562;55.662;37.300;2022-12-24T02:46:05;4.22;;;2.80;;
75887;SDS011;64562;55.662;37.300;2022-12-24T02:48:34;4.40;;;2.78;;
75887;SDS011;64562;55.662;37.300;2022-12-24T02:51:02;4.72;;;3.38;;
75887;SDS011;64562;55.662;37.300;2022-12-24T02:53:30;5.20;;;3.20;;
75887;SDS011;64562;55.662;37.300;2022-12-24T02:58:51;4.22;;;2.75;;
75887;SDS011;64562;55.662;37.300;2022-12-24T03:01:23;4.28;;;2.55;;
75887;SDS011;64562;55.662;37.300;2022-12-24T03:03:57;4.72;;;2.85;;
75887;SDS011;64562;55.662;37.300;2022-12-24T03:06:27;4.68;;;2.67;;
75887;SDS011;64562;55.662;37.300;2022-12-24T03:08:57;4.03;;;2.45;;
75887;SDS011;64562;55.662;37.300;2022-12-24T03:11:25;5.97;;;2.80;;
75887;SDS011;64562;55.662;37.300;2022-12-24T03:13:52;4.00;;;2.63;;
75887;SDS011;64562;55.662;37.300;2022-12-24T03:16:21;4.10;;;2.65;;
75887;SDS011;64562;55.662;37.300;2022-12-24T03:18:49;4.68;;;2.88;;
75887;SDS011;64562;55.662;37.300;2022-12-24T03:21:19;4.40;;;2.92;;
75887;SDS011;64562;55.662;37.300;2022-12-24T03:23:47;3.72;;;2.45;;
75887;SDS011;64562;55.662;37.300;2022-12-24T03:26:15;4.85;;;3.00;;
75887;SDS011;64562;55.662;37.300;2022-12-24T03:28:42;3.85;;;2.75;;
75887;SDS011;64562;55.662;37.300;2022-12-24T03:31:09;4.85;;;3.15;;
75887;SDS011;64562;55.662;37.300;2022-12-24T03:33:36;3.85;;;2.60;;
75887;SDS011;64562;55.662;37.300;2022-12-24T03:36:03;3.47;;;2.70;;
75887;SDS011;64562;55.662;37.300;2022-12-24T03:38:31;4.47;;;2.85;;
75887;SDS011;64562;55.662;37.300;2022-12-24T03:40:58;4.20;;;2.80;;
75887;SDS011;64562;55.662;37.300;2022-12-24T03:43:25;4.20;;;2.95;;
75887;SDS011;64562;55.662;37.300;2022-12-24T03:45:51;5.38;;;3.33;;
75887;SDS011;64562;55.662;37.300;2022-12-24T03:48:18;4.97;;;3.20;;
75887;SDS011;64562;55.662;37.300;2022-12-24T03:50:45;4.50;;;2.90;;
75887;SDS011;64562;55.662;37.300;2022-12-24T03:53:11;5.30;;;3.15;;
75887;SDS011;64562;55.662;37.300;2022-12-24T03:55:39;4.88;;;3.15;;
75887;SDS011;64562;55.662;37.300;2022-12-24T03:58:06;4.55;;;3.30;;
75887;SDS011;64562;55.662;37.300;2022-12-24T04:00:32;4.65;;;2.65;;
75887;SDS011;64562;55.662;37.300;2022-12-24T04:02:59;4.32;;;2.60;;
75887;SDS011;64562;55.662;37.300;2022-12-24T04:05:26;4.00;;;2.83;;
75887;SDS011;64562;55.662;37.300;2022-12-24T04:07:52;4.28;;;3.03;;
75887;SDS011;64562;55.662;37.300;2022-12-24T04:10:19;3.80;;;2.55;;
75887;SDS011;64562;55.662;37.300;2022-12-24T04:12:47;4.72;;;3.10;;
75887;SDS011;64562;55.662;37.300;2022-12-24T04:15:13;5.03;;;3.38;;
75887;SDS011;64562;55.662;37.300;2022-12-24T04:17:40;4.63;;;2.83;;
75887;SDS011;64562;55.662;37.300;2022-12-24T04:20:07;4.15;;;3.20;;
75887;SDS011;64562;55.662;37.300;2022-12-24T04:22:34;3.92;;;2.72;;
75887;SDS011;64562;55.662;37.300;2022-12-24T04:25:01;3.75;;;2.72;;
75887;SDS011;64562;55.662;37.300;2022-12-24T04:27:27;4.18;;;2.83;;
75887;SDS011;64562;55.662;37.300;2022-12-24T04:29:56;5.30;;;2.65;;
75887;SDS011;64562;55.662;37.300;2022-12-24T04:32:23;4.15;;;2.90;;
75887;SDS011;64562;55.662;37.300;2022-12-24T04:34:50;3.90;;;2.63;;
75887;SDS011;64562;55.662;37.300;2022-12-24T04:37:17;4.18;;;2.80;;
75887;SDS011;64562;55.662;37.300;2022-12-24T04:39:43;4.55;;;2.80;;
75887;SDS011;64562;55.662;37.300;2022-12-24T04:42:10;4.57;;;3.30;;
75887;SDS011;64562;55.662;37.300;2022-12-24T04:44:37;4.05;;;2.80;;
75887;SDS011;64562;55.662;37.300;2022-12-24T04:47:05;4.30;;;2.90;;
75887;SDS011;64562;55.662;37.300;2022-12-24T04:49:31;4.68;;;3.08;;
75887;SDS011;64562;55.662;37.300;2022-12-24T04:51:58;4.60;;;3.05;;
75887;SDS011;64562;55.662;37.300;2022-12-24T04:54:25;4.05;;;3.10;;
75887;SDS011;64562;55.662;37.300;2022-12-24T04:56:51;4.93;;;3.10;;
75887;SDS011;64562;55.662;37.300;2022-12-24T04:59:18;4.40;;;3.00;;
75887;SDS011;64562;55.662;37.300;2022-12-24T05:01:45;4.93;;;3.10;;
75887;SDS011;64562;55.662;37.300;2022-12-24T05:04:13;5.22;;;3.40;;
75887;SDS011;64562;55.662;37.300;2022-12-24T05:06:39;4.93;;;2.90;;
75887;SDS011;64562;55.662;37.300;2022-12-24T05:09:06;5.05;;;3.30;;
75887;SDS011;64562;55.662;37.300;2022-12-24T05:11:32;5.35;;;3.00;;
75887;SDS011;64562;55.662;37.300;2022-12-24T05:13:59;3.70;;;2.80;;
75887;SDS011;64562;55.662;37.300;2022-12-24T05:16:26;4.30;;;2.92;;
75887;SDS011;64562;55.662;37.300;2022-12-24T05:18:52;4.85;;;3.53;;
75887;SDS011;64562;55.662;37.300;2022-12-24T05:21:21;4.78;;;3.03;;
75887;SDS011;64562;55.662;37.300;2022-12-24T05:23:48;4.65;;;3.03;;
75887;SDS011;64562;55.662;37.300;2022-12-24T05:26:32;4.63;;;2.97;;
75887;SDS011;64562;55.662;37.300;2022-12-24T05:29:00;4.13;;;2.83;;
75887;SDS011;64562;55.662;37.300;2022-12-24T05:31:27;5.80;;;3.30;;
75887;SDS011;64562;55.662;37.300;2022-12-24T05:33:54;4.50;;;2.83;;
75887;SDS011;64562;55.662;37.300;2022-12-24T05:36:22;4.85;;;3.05;;
75887;SDS011;64562;55.662;37.300;2022-12-24T05:38:49;5.13;;;3.33;;
75887;SDS011;64562;55.662;37.300;2022-12-24T05:41:15;5.25;;;3.38;;
75887;SDS011;64562;55.662;37.300;2022-12-24T05:43:42;5.40;;;3.42;;
75887;SDS011;64562;55.662;37.300;2022-12-24T05:46:09;5.07;;;3.60;;
75887;SDS011;64562;55.662;37.300;2022-12-24T05:48:36;6.10;;;3.80;;
75887;SDS011;64562;55.662;37.300;2022-12-24T05:51:04;5.13;;;3.35;;
75887;SDS011;64562;55.662;37.300;2022-12-24T05:53:32;5.57;;;3.22;;
75887;SDS011;64562;55.662;37.300;2022-12-24T05:56:02;4.38;;;3.00;;
75887;SDS011;64562;55.662;37.300;2022-12-24T05:58:29;3.92;;;3.05;;
75887;SDS011;64562;55.662;37.300;2022-12-24T06:00:56;4.85;;;3.22;;
75887;SDS011;64562;55.662;37.300;2022-12-24T06:03:23;4.40;;;3.05;;
75887;SDS011;64562;55.662;37.300;2022-12-24T06:05:56;4.60;;;3.10;;
75887;SDS011;64562;55.662;37.300;2022-12-24T06:08:22;4.15;;;3.10;;
75887;SDS011;64562;55.662;37.300;2022-12-24T06:10:54;4.45;;;3.05;;
75887;SDS011;64562;55.662;37.300;2022-12-24T06:13:21;4.93;;;3.05;;
75887;SDS011;64562;55.662;37.300;2022-12-24T06:15:47;5.80;;;3.45;;
75887;SDS011;64562;55.662;37.300;2022-12-24T06:18:14;4.68;;;2.88;;
75887;SDS011;64562;55.662;37.300;2022-12-24T06:20:41;5.63;;;3.58;;
75887;SDS011;64562;55.662;37.300;2022-12-24T06:23:07;4.15;;;2.80;;
75887;SDS011;64562;55.662;37.300;2022-12-24T06:25:34;4.30;;;2.85;;
75887;SDS011;64562;55.662;37.300;2022-12-24T06:28:02;3.88;;;2.72;;
75887;SDS011;64562;55.662;37.300;2022-12-24T06:30:29;4.82;;;3.17;;
75887;SDS011;64562;55.662;37.300;2022-12-24T06:32:55;5.57;;;3.45;;
75887;SDS011;64562;55.662;37.300;2022-12-24T06:35:22;4.03;;;2.97;;
75887;SDS011;64562;55.662;37.300;2022-12-24T06:37:48;5.05;;;3.33;;
75887;SDS011;64562;55.662;37.300;2022-12-24T06:40:16;4.10;;;2.88;;
75887;SDS011;64562;55.662;37.300;2022-12-24T06:42:43;4.10;;;2.83;;
75887;SDS011;64562;55.662;37.300;2022-12-24T06:45:11;4.35;;;2.83;;
75887;SDS011;64562;55.662;37.300;2022-12-24T06:47:38;3.92;;;2.53;;
75887;SDS011;64562;55.662;37.300;2022-12-24T06:50:05;3.40;;;2.67;;
75887;SDS011;64562;55.662;37.300;2022-12-24T06:52:31;4.80;;;3.17;;
75887;SDS011;64562;55.662;37.300;2022-12-24T06:54:58;3.95;;;2.83;;
75887;SDS011;64562;55.662;37.300;2022-12-24T06:57:25;4.50;;;2.90;;
75887;SDS011;64562;55.662;37.300;2022-12-24T06:59:51;4.03;;;3.10;;
75887;SDS011;64562;55.662;37.300;2022-12-24T07:02:19;3.85;;;2.65;;
75887;SDS011;64562;55.662;37.300;2022-12-24T07:04:46;3.42;;;2.50;;
75887;SDS011;64562;55.662;37.300;2022-12-24T07:07:12;4.55;;;2.90;;
75887;SDS011;64562;55.662;37.300;2022-12-24T07:09:39;3.33;;;2.60;;
75887;SDS011;64562;55.662;37.300;2022-12-24T07:12:06;4.65;;;3.05;;
75887;SDS011;64562;55.662;37.300;2022-12-24T07:14:32;4.68;;;2.78;;
75887;SDS011;64562;55.662;37.300;2022-12-24T07:16:59;4.95;;;3.20;;
75887;SDS011;64562;55.662;37.300;2022-12-24T07:19:27;4.43;;;3.10;;
75887;SDS011;64562;55.662;37.300;2022-12-24T07:21:54;4.40;;;2.78;;
75887;SDS011;64562;55.662;37.300;2022-12-24T07:24:20;4.90;;;2.63;;
75887;SDS011;64562;55.662;37.300;2022-12-24T07:26:47;3.63;;;2.70;;
75887;SDS011;64562;55.662;37.300;2022-12-24T07:29:14;4.10;;;2.80;;
75887;SDS011;64562;55.662;37.300;2022-12-24T07:31:40;4.43;;;2.83;;
75887;SDS011;64562;55.662;37.300;2022-12-24T07:34:07;5.50;;;3.08;;
75887;SDS011;64562;55.662;37.300;2022-12-24T07:36:35;3.63;;;2.70;;
75887;SDS011;64562;55.662;37.300;2022-12-24T07:39:02;4.13;;;2.67;;
75887;SDS011;64562;55.662;37.300;2022-12-24T07:41:28;4.25;;;2.70;;
75887;SDS011;64562;55.662;37.300;2022-12-24T07:43:55;4.13;;;2.72;;
75887;SDS011;64562;55.662;37.300;2022-12-24T07:46:22;3.45;;;2.75;;
75887;SDS011;64562;55.662;37.300;2022-12-24T07:48:48;3.33;;;2.50;;
75887;SDS011;64562;55.662;37.300;2022-12-24T07:51:15;4.95;;;2.85;;
75887;SDS011;64562;55.662;37.300;2022-12-24T07:53:43;3.83;;;2.75;;
75887;SDS011;64562;55.662;37.300;2022-12-24T07:58:38;3.60;;;2.55;;
75887;SDS011;64562;55.662;37.300;2022-12-24T08:01:05;3.65;;;2.50;;
75887;SDS011;64562;55.662;37.300;2022-12-24T08:03:31;3.45;;;2.67;;
75887;SDS011;64562;55.662;37.300;2022-12-24T08:05:58;3.85;;;2.55;;
75887;SDS011;64562;55.662;37.300;2022-12-24T08:08:25;4.47;;;2.38;;
75887;SDS011;64562;55.662;37.300;2022-12-24T08:10:53;4.07;;;2.60;;
75887;SDS011;64562;55.662;37.300;2022-12-24T08:13:19;4.43;;;2.70;;
75887;SDS011;64562;55.662;37.300;2022-12-24T08:15:46;4.53;;;2.47;;
75887;SDS011;64562;55.662;37.300;2022-12-24T08:18:13;3.72;;;2.72;;
75887;SDS011;64562;55.662;37.300;2022-12-24T08:20:39;4.75;;;2.50;;
75887;SDS011;64562;55.662;37.300;2022-12-24T08:23:06;4.60;;;2.70;;
75887;SDS011;64562;55.662;37.300;2022-12-24T08:25:33;3.63;;;2.58;;
75887;SDS011;64562;55.662;37.300;2022-12-24T08:28:02;3.63;;;2.38;;
75887;SDS011;64562;55.662;37.300;2022-12-24T08:30:28;3.90;;;2.55;;
75887;SDS011;64562;55.662;37.300;2022-12-24T08:32:55;3.65;;;2.42;;
75887;SDS011;64562;55.662;37.300;2022-12-24T08:35:22;3.25;;;2.13;;
75887;SDS011;64562;55.662;37.300;2022-12-24T08:37:48;3.45;;;2.50;;
75887;SDS011;64562;55.662;37.300;2022-12-24T08:40:15;3.45;;;2.70;;
75887;SDS011;64562;55.662;37.300;2022-12-24T08:42:42;2.78;;;2.03;;
75887;SDS011;64562;55.662;37.300;2022-12-24T08:45:10;3.85;;;2.70;;
75887;SDS011;64562;55.662;37.300;2022-12-24T08:47:37;3.25;;;2.35;;
75887;SDS011;64562;55.662;37.300;2022-12-24T08:50:04;3.17;;;2.35;;
75887;SDS011;64562;55.662;37.300;2022-12-24T08:52:31;3.08;;;2.30;;
75887;SDS011;64562;55.662;37.300;2022-12-24T08:54:58;3.65;;;2.70;;
75887;SDS011;64562;55.662;37.300;2022-12-24T08:57:25;2.78;;;2.15;;
75887;SDS011;64562;55.662;37.300;2022-12-24T08:59:51;3.75;;;2.40;;
75887;SDS011;64562;55.662;37.300;2022-12-24T09:02:19;3.20;;;2.40;;
75887;SDS011;64562;55.662;37.300;2022-12-24T09:04:46;3.35;;;2.35;;
75887;SDS011;64562;55.662;37.300;2022-12-24T09:07:12;3.25;;;2.10;;
75887;SDS011;64562;55.662;37.300;2022-12-24T09:09:39;3.10;;;2.40;;
75887;SDS011;64562;55.662;37.300;2022-12-24T09:12:06;3.20;;;2.22;;
75887;SDS011;64562;55.662;37.300;2022-12-24T09:14:34;3.35;;;2.40;;
75887;SDS011;64562;55.662;37.300;2022-12-24T09:17:00;2.28;;;1.98;;
75887;SDS011;64562;55.662;37.300;2022-12-24T09:19:28;3.47;;;2.00;;
75887;SDS011;64562;55.662;37.300;2022-12-24T09:21:55;2.65;;;1.90;;
75887;SDS011;64562;55.662;37.300;2022-12-24T09:24:22;3.45;;;2.33;;
75887;SDS011;64562;55.662;37.300;2022-12-24T09:26:48;3.42;;;2.50;;
75887;SDS011;64562;55.662;37.300;2022-12-24T09:29:15;3.75;;;2.40;;
75887;SDS011;64562;55.662;37.300;2022-12-24T09:31:42;2.50;;;1.90;;
75887;SDS011;64562;55.662;37.300;2022-12-24T09:34:08;3.47;;;2.20;;
75887;SDS011;64562;55.662;37.300;2022-12-24T09:36:36;2.50;;;1.90;;
75887;SDS011;64562;55.662;37.300;2022-12-24T09:39:03;4.07;;;2.40;;
75887;SDS011;64562;55.662;37.300;2022-12-24T09:41:39;2.95;;;2.10;;
75887;SDS011;64562;55.662;37.300;2022-12-24T09:44:09;3.05;;;2.20;;
75887;SDS011;64562;55.662;37.300;2022-12-24T09:46:38;3.28;;;2.00;;
75887;SDS011;64562;55.662;37.300;2022-12-24T09:49:08;2.60;;;2.00;;
75887;SDS011;64562;55.662;37.300;2022-12-24T09:51:38;3.17;;;2.20;;
75887;SDS011;64562;55.662;37.300;2022-12-24T09:54:07;2.60;;;1.80;;
75887;SDS011;64562;55.662;37.300;2022-12-24T09:56:37;3.03;;;2.03;;
75887;SDS011;64562;55.662;37.300;2022-12-24T09:59:05;5.25;;;2.10;;
75887;SDS011;64562;55.662;37.300;2022-12-24T10:01:32;3.10;;;2.00;;
75887;SDS011;64562;55.662;37.300;2022-12-24T10:04:01;3.63;;;1.85;;
75887;SDS011;64562;55.662;37.300;2022-12-24T10:06:28;3.05;;;1.80;;
75887;SDS011;64562;55.662;37.300;2022-12-24T10:11:28;2.83;;;1.90;;
75887;SDS011;64562;55.662;37.300;2022-12-24T10:14:02;3.67;;;1.90;;
75887;SDS011;64562;55.662;37.300;2022-12-24T10:16:31;2.50;;;2.10;;
75887;SDS011;64562;55.662;37.300;2022-12-24T10:19:04;6.13;;;2.22;;
75887;SDS011;64562;55.662;37.300;2022-12-24T10:21:36;4.05;;;2.00;;
75887;SDS011;64562;55.662;37.300;2022-12-24T10:24:10;4.68;;;2.00;;
75887;SDS011;64562;55.662;37.300;2022-12-24T10:26:42;3.40;;;1.80;;
75887;SDS011;64562;55.662;37.300;2022-12-24T10:29:12;5.65;;;2.13;;
75887;SDS011;64562;55.662;37.300;2022-12-24T10:31:40;9.25;;;2.63;;
75887;SDS011;64562;55.662;37.300;2022-12-24T10:34:11;6.18;;;2.42;;
75887;SDS011;64562;55.662;37.300;2022-12-24T10:36:39;9.18;;;3.17;;
75887;SDS011;64562;55.662;37.300;2022-12-24T10:39:07;5.32;;;2.55;;
75887;SDS011;64562;55.662;37.300;2022-12-24T10:41:40;7.63;;;2.35;;
75887;SDS011;64562;55.662;37.300;2022-12-24T10:44:07;9.02;;;2.53;;
75887;SDS011;64562;55.662;37.300;2022-12-24T10:46:37;5.35;;;2.30;;
75887;SDS011;64562;55.662;37.300;2022-12-24T10:49:05;5.97;;;2.20;;
75887;SDS011;64562;55.662;37.300;2022-12-24T10:51:33;6.40;;;2.38;;
75887;SDS011;64562;55.662;37.300;2022-12-24T10:54:05;5.35;;;2.38;;
75887;SDS011;64562;55.662;37.300;2022-12-24T10:56:37;9.73;;;2.55;;
75887;SDS011;64562;55.662;37.300;2022-12-24T10:59:08;5.18;;;2.17;;
75887;SDS011;64562;55.662;37.300;2022-12-24T11:01:47;4.93;;;2.17;;
75887;SDS011;64562;55.662;37.300;2022-12-24T11:04:15;5.93;;;2.13;;
75887;SDS011;64562;55.662;37.300;2022-12-24T11:06:50;4.57;;;2.47;;
75887;SDS011;64562;55.662;37.300;2022-12-24T11:09:19;5.50;;;1.98;;
75887;SDS011;64562;55.662;37.300;2022-12-24T11:11:46;4.25;;;2.20;;
75887;SDS011;64562;55.662;37.300;2022-12-24T11:14:16;4.10;;;2.30;;
75887;SDS011;64562;55.662;37.300;2022-12-24T11:16:48;3.30;;;1.95;;
75887;SDS011;64562;55.662;37.300;2022-12-24T11:19:15;5.38;;;2.33;;
75887;SDS011;64562;55.662;37.300;2022-12-24T11:21:43;3.53;;;2.50;;
75887;SDS011;64562;55.662;37.300;2022-12-24T11:24:16;4.10;;;2.28;;
75887;SDS011;64562;55.662;37.300;2022-12-24T11:26:46;5.47;;;2.03;;
75887;SDS011;64562;55.662;37.300;2022-12-24T11:29:14;4.28;;;2.58;;
75887;SDS011;64562;55.662;37.300;2022-12-24T11:31:43;4.50;;;2.17;;
75887;SDS011;64562;55.662;37.300;2022-12-24T11:34:17;7.95;;;2.33;;
75887;SDS011;64562;55.662;37.300;2022-12-24T11:36:45;4.57;;;2.53;;
75887;SDS011;64562;55.662;37.300;2022-12-24T11:39:15;4.78;;;2.75;;
75887;SDS011;64562;55.662;37.300;2022-12-24T11:41:42;5.68;;;2.33;;
75887;SDS011;64562;55.662;37.300;2022-12-24T11:44:09;5.35;;;2.50;;
75887;SDS011;64562;55.662;37.300;2022-12-24T11:46:37;5.43;;;2.53;;
75887;SDS011;64562;55.662;37.300;2022-12-24T11:49:12;16.20;;;3.15;;
75887;SDS011;64562;55.662;37.300;2022-12-24T11:51:39;4.90;;;2.67;;
75887;SDS011;64562;55.662;37.300;2022-12-24T11:54:08;4.82;;;2.67;;
75887;SDS011;64562;55.662;37.300;2022-12-24T11:56:39;4.63;;;2.40;;
75887;SDS011;64562;55.662;37.300;2022-12-24T11:59:12;5.30;;;2.70;;
75887;SDS011;64562;55.662;37.300;2022-12-24T12:01:44;3.88;;;2.60;;
75887;SDS011;64562;55.662;37.300;2022-12-24T12:04:16;5.78;;;2.47;;
75887;SDS011;64562;55.662;37.300;2022-12-24T12:06:44;5.45;;;2.30;;
75887;SDS011;64562;55.662;37.300;2022-12-24T12:09:12;5.75;;;2.90;;
75887;SDS011;64562;55.662;37.300;2022-12-24T12:11:41;5.38;;;2.47;;
75887;SDS011;64562;55.662;37.300;2022-12-24T12:14:11;7.63;;;2.50;;
75887;SDS011;64562;55.662;37.300;2022-12-24T12:16:42;5.05;;;2.28;;
75887;SDS011;64562;55.662;37.300;2022-12-24T12:19:26;6.60;;;2.33;;
75887;SDS011;64562;55.662;37.300;2022-12-24T12:21:55;4.55;;;2.15;;
75887;SDS011;64562;55.662;37.300;2022-12-24T12:24:24;4.78;;;2.60;;
75887;SDS011;64562;55.662;37.300;2022-12-24T12:26:54;6.68;;;2.85;;
75887;SDS011;64562;55.662;37.300;2022-12-24T12:29:23;5.65;;;2.13;;
75887;SDS011;64562;55.662;37.300;2022-12-24T12:31:53;3.10;;;1.90;;
75887;SDS011;64562;55.662;37.300;2022-12-24T12:34:22;5.30;;;2.35;;
75887;SDS011;64562;55.662;37.300;2022-12-24T12:36:52;3.95;;;2.20;;
75887;SDS011;64562;55.662;37.300;2022-12-24T12:39:21;3.63;;;2.30;;
75887;SDS011;64562;55.662;37.300;2022-12-24T12:41:49;5.00;;;2.38;;
75887;SDS011;64562;55.662;37.300;2022-12-24T12:44:24;3.95;;;2.10;;
75887;SDS011;64562;55.662;37.300;2022-12-24T12:46:56;4.32;;;2.25;;
75887;SDS011;64562;55.662;37.300;2022-12-24T12:49:27;3.63;;;2.33;;
75887;SDS011;64562;55.662;37.300;2022-12-24T12:52:01;4.70;;;2.20;;
75887;SDS011;64562;55.662;37.300;2022-12-24T12:54:34;5.32;;;2.28;;
75887;SDS011;64562;55.662;37.300;2022-12-24T12:57:06;4.00;;;1.73;;
75887;SDS011;64562;55.662;37.300;2022-12-24T12:59:35;3.55;;;2.05;;
75887;SDS011;64562;55.662;37.300;2022-12-24T13:04:41;3.80;;;2.05;;
75887;SDS011;64562;55.662;37.300;2022-12-24T13:07:20;5.60;;;2.15;;
75887;SDS011;64562;55.662;37.300;2022-12-24T13:09:59;3.88;;;2.00;;
75887;SDS011;64562;55.662;37.300;2022-12-24T13:12:39;3.70;;;2.17;;
75887;SDS011;64562;55.662;37.300;2022-12-24T13:18:03;4.60;;;2.30;;
75887;SDS011;64562;55.662;37.300;2022-12-24T13:20:36;3.53;;;1.80;;
75887;SDS011;64562;55.662;37.300;2022-12-24T13:23:10;3.08;;;1.90;;
75887;SDS011;64562;55.662;37.300;2022-12-24T13:25:38;3.88;;;1.92;;
75887;SDS011;64562;55.662;37.300;2022-12-24T13:28:15;2.95;;;2.10;;
75887;SDS011;64562;55.662;37.300;2022-12-24T13:30:42;2.70;;;1.60;;
75887;SDS011;64562;55.662;37.300;2022-12-24T13:33:10;4.88;;;2.10;;
75887;SDS011;64562;55.662;37.300;2022-12-24T13:35:37;3.15;;;1.52;;
75887;SDS011;64562;55.662;37.300;2022-12-24T13:38:41;3.40;;;1.70;;
75887;SDS011;64562;55.662;37.300;2022-12-24T13:44:03;5.50;;;1.65;;
75887;SDS011;64562;55.662;37.300;2022-12-24T13:46:45;4.95;;;1.85;;
75887;SDS011;64562;55.662;37.300;2022-12-24T13:49:14;2.47;;;1.73;;
75887;SDS011;64562;55.662;37.300;2022-12-24T13:51:43;4.47;;;1.80;;
75887;SDS011;64562;55.662;37.300;2022-12-24T13:54:11;3.50;;;1.70;;
75887;SDS011;64562;55.662;37.300;2022-12-24T13:56:39;3.05;;;1.55;;
75887;SDS011;64562;55.662;37.300;2022-12-24T13:59:11;4.80;;;1.65;;
75887;SDS011;64562;55.662;37.300;2022-12-24T14:01:42;3.70;;;1.75;;
75887;SDS011;64562;55.662;37.300;2022-12-24T14:04:17;3.45;;;1.52;;
75887;SDS011;64562;55.662;37.300;2022-12-24T14:06:47;3.42;;;1.70;;
75887;SDS011;64562;55.662;37.300;2022-12-24T14:09:16;2.80;;;1.73;;
75887;SDS011;64562;55.662;37.300;2022-12-24T14:14:29;3.53;;;2.00;;
75887;SDS011;64562;55.662;37.300;2022-12-24T14:16:56;4.93;;;2.03;;
75887;SDS011;64562;55.662;37.300;2022-12-24T14:19:24;3.78;;;2.10;;
75887;SDS011;64562;55.662;37.300;2022-12-24T14:21:55;3.83;;;2.20;;
75887;SDS011;64562;55.662;37.300;2022-12-24T14:24:26;3.83;;;1.90;;
75887;SDS011;64562;55.662;37.300;2022-12-24T14:29:20;3.83;;;2.20;;
75887;SDS011;64562;55.662;37.300;2022-12-24T14:31:50;4.53;;;2.17;;
75887;SDS011;64562;55.662;37.300;2022-12-24T14:34:17;4.25;;;1.85;;
75887;SDS011;64562;55.662;37.300;2022-12-24T14:36:44;3.97;;;1.70;;
75887;SDS011;64562;55.662;37.300;2022-12-24T14:39:15;3.58;;;2.10;;
75887;SDS011;64562;55.662;37.300;2022-12-24T14:41:49;4.88;;;1.90;;
75887;SDS011;64562;55.662;37.300;2022-12-24T14:44:20;3.92;;;2.15;;
75887;SDS011;64562;55.662;37.300;2022-12-24T14:46:50;2.90;;;1.70;;
75887;SDS011;64562;55.662;37.300;2022-12-24T14:49:29;4.35;;;1.98;;
75887;SDS011;64562;55.662;37.300;2022-12-24T14:51:59;3.40;;;1.88;;
75887;SDS011;64562;55.662;37.300;2022-12-24T14:54:31;1.80;;;1.55;;
75887;SDS011;64562;55.662;37.300;2022-12-24T14:57:08;3.70;;;2.10;;
75887;SDS011;64562;55.662;37.300;2022-12-24T14:59:46;5.88;;;2.38;;
75887;SDS011;64562;55.662;37.300;2022-12-24T15:02:29;4.05;;;2.10;;